Time;durP1;ratioP1;P1;durP2;ratioP2;P2;SDS_P1;SDS_P2;PMS_P1;PMS_P2;Temp;Humidity;BMP_temperature;BMP_pressure;BME280_temperature;BME280_humidity;BME280_pressure;Samples;Min_cycle;Max_cycle;Signal;HPM_P1;HPM_P2
2023/09/01 00:00:43;;;;;;;1.38;0.90;;;19.20;83.10;;;;;;5072085;28;20083;-31
2023/09/01 00:03:10;;;;;;;1.42;1.00;;;19.00;77.80;;;;;;5071837;28;20049;-32
2023/09/01 00:05:37;;;;;;;1.35;0.90;;;19.20;85.40;;;;;;5072143;28;20127;-32
2023/09/01 00:08:04;;;;;;;1.50;1.20;;;19.10;85.40;;;;;;5071758;28;20131;-32
2023/09/01 00:10:35;;;;;;;1.20;1.00;;;;;;;;;;5070910;28;20088;-32
2023/09/01 00:13:04;;;;;;;2.03;1.15;;;20.10;85.50;;;;;;5071854;28;20165;-30
2023/09/01 00:15:31;;;;;;;1.08;0.98;;;19.30;85.20;;;;;;5072035;28;20083;-31
2023/09/01 00:17:58;;;;;;;1.23;0.82;;;19.40;71.40;;;;;;5072088;28;20044;-30
2023/09/01 00:20:25;;;;;;;0.95;0.85;;;;;;;;;;5071644;28;20135;-30
2023/09/01 00:22:52;;;;;;;1.33;1.00;;;;;;;;;;5071449;28;20563;-31
2023/09/01 00:25:19;;;;;;;1.48;1.10;;;19.40;85.20;;;;;;5057374;28;20582;-31
2023/09/01 00:27:46;;;;;;;1.80;1.10;;;;;;;;;;5051710;28;20132;-35
2023/09/01 00:30:14;;;;;;;1.85;1.10;;;19.40;85.50;;;;;;5051828;28;20131;-31
2023/09/01 00:32:41;;;;;;;1.30;1.00;;;;;;;;;;5051534;28;20128;-32
2023/09/01 00:35:08;;;;;;;1.92;1.10;;;;;;;;;;5051635;28;20231;-33
2023/09/01 00:37:35;;;;;;;1.95;1.02;;;19.50;85.70;;;;;;5065096;28;20152;-31
2023/09/01 00:40:03;;;;;;;4.00;1.00;;;;;;;;;;5071613;28;20096;-34
2023/09/01 00:42:30;;;;;;;2.20;0.93;;;18.80;84.90;;;;;;5071632;28;20063;-31
2023/09/01 00:44:56;;;;;;;1.45;1.10;;;18.40;70.90;;;;;;5071593;28;20080;-31
2023/09/01 00:47:24;;;;;;;1.42;1.05;;;18.90;85.00;;;;;;5071294;28;20064;-31
2023/09/01 00:49:51;;;;;;;1.02;0.93;;;18.50;84.80;;;;;;5071655;28;20123;-32
2023/09/01 00:52:18;;;;;;;2.47;1.20;;;19.10;85.10;;;;;;5070464;28;20120;-31
2023/09/01 00:54:45;;;;;;;1.35;0.95;;;19.00;77.30;;;;;;5071075;28;20131;-34
2023/09/01 00:57:12;;;;;;;1.25;0.93;;;;;;;;;;5071589;28;20127;-32
2023/09/01 00:59:39;;;;;;;2.42;1.10;;;;;;;;;;5071526;28;20131;-33
2023/09/01 01:02:05;;;;;;;1.85;1.13;;;19.20;85.40;;;;;;5070070;28;20456;-32
2023/09/01 01:04:33;;;;;;;1.23;1.00;;;19.20;85.10;;;;;;5066306;28;20128;-31
2023/09/01 01:07:06;;;;;;;1.17;0.90;;;18.80;84.90;;;;;;5052480;28;20128;-31
2023/09/01 01:09:38;;;;;;;1.42;1.00;;;19.10;67.30;;;;;;5051553;28;20053;-33
2023/09/01 01:12:06;;;;;;;1.50;1.10;;;19.30;85.60;;;;;;5051403;28;20129;-32
2023/09/01 01:14:45;;;;;;;1.17;0.90;;;19.50;73.30;;;;;;5051160;28;20060;-33
2023/09/01 01:17:13;;;;;;;4.18;1.20;;;;;;;;;;5054700;28;20510;-32
2023/09/01 01:19:50;;;;;;;1.50;0.90;;;19.50;73.20;;;;;;5072882;28;20048;-33
2023/09/01 01:22:21;;;;;;;2.15;1.08;;;19.60;85.40;;;;;;5074898;28;20132;-31
2023/09/01 01:24:49;;;;;;;2.08;1.02;;;17.90;69.30;;;;;;5074910;28;20128;-31
2023/09/01 01:27:18;;;;;;;1.48;1.00;;;19.10;69.00;;;;;;5074953;28;20051;-31
2023/09/01 01:29:45;;;;;;;1.52;0.90;;;18.10;85.00;;;;;;5074850;28;20075;-31
2023/09/01 01:32:13;;;;;;;1.33;1.20;;;;;;;;;;5074687;28;20127;-34
2023/09/01 01:34:40;;;;;;;1.08;0.98;;;19.10;73.10;;;;;;5061709;28;20053;-30
2023/09/01 01:37:11;;;;;;;1.83;1.20;;;20.00;85.90;;;;;;5065246;28;20123;-31
2023/09/01 01:39:38;;;;;;;1.20;0.95;;;;;;;;;;5074481;28;20577;-33
2023/09/01 01:42:10;;;;;;;1.40;1.13;;;19.00;85.10;;;;;;5074512;28;20584;-31
2023/09/01 01:44:38;;;;;;;1.63;1.05;;;18.70;82.80;;;;;;5074384;28;20140;-31
2023/09/01 01:47:06;;;;;;;1.73;1.00;;;18.90;85.40;;;;;;5074490;28;20109;-31
2023/09/01 01:49:33;;;;;;;1.50;1.20;;;18.00;84.60;;;;;;5074018;28;20087;-31
2023/09/01 01:52:01;;;;;;;1.50;1.10;;;17.90;67.30;;;;;;5074673;28;20104;-31
2023/09/01 01:54:28;;;;;;;2.00;1.10;;;18.80;85.00;;;;;;5074246;28;20060;-31
2023/09/01 01:56:55;;;;;;;1.85;1.17;;;18.40;79.00;;;;;;5074208;28;20135;-34
2023/09/01 01:59:23;;;;;;;1.33;1.10;;;19.40;75.50;;;;;;5074313;28;20132;-30
2023/09/01 02:01:49;;;;;;;2.05;1.20;;;18.90;85.40;;;;;;5074436;28;20135;-32
2023/09/01 02:04:15;;;;;;;1.42;1.10;;;19.10;85.20;;;;;;5074124;28;20091;-31
2023/09/01 02:06:42;;;;;;;1.75;1.17;;;;;;;;;;5054520;28;20476;-31
2023/09/01 02:09:09;;;;;;;1.63;1.10;;;19.30;73.60;;;;;;5071284;28;20083;-31
2023/09/01 02:11:36;;;;;;;2.30;1.35;;;;;;;;;;5074218;28;20114;-31
2023/09/01 02:14:03;;;;;;;1.58;1.00;;;19.10;74.50;;;;;;5073811;28;20135;-31
2023/09/01 02:16:31;;;;;;;1.75;1.17;;;19.10;85.30;;;;;;5074080;28;20128;-31
2023/09/01 02:18:58;;;;;;;1.80;1.20;;;18.60;84.70;;;;;;5074160;28;20080;-30
2023/09/01 02:21:25;;;;;;;1.00;0.90;;;;;;;;;;5065617;28;20053;-32
2023/09/01 02:23:52;;;;;;;1.90;1.10;;;18.60;85.10;;;;;;5053732;28;20128;-31
2023/09/01 02:26:19;;;;;;;1.45;1.00;;;18.60;85.00;;;;;;5053647;28;20049;-30
2023/09/01 02:28:46;;;;;;;1.45;1.20;;;;;;;;;;5054060;28;20135;-31
2023/09/01 02:31:14;;;;;;;1.30;0.98;;;;;;;;;;5053777;28;20136;-31
2023/09/01 02:33:42;;;;;;;1.20;1.00;;;18.70;85.00;;;;;;5053626;28;20056;-30
2023/09/01 02:36:30;;;;;;;3.05;1.13;;;18.70;84.70;;;;;;5055147;28;20049;-30
2023/09/01 02:38:57;;;;;;;1.67;1.08;;;19.30;85.60;;;;;;5068910;28;20131;-31
2023/09/01 02:41:24;;;;;;;1.75;1.10;;;;;;;;;;5073531;28;20074;-31
2023/09/01 02:43:51;;;;;;;2.17;1.10;;;;;;;;;;5073136;28;20131;-30
2023/09/01 02:46:18;;;;;;;2.95;1.00;;;18.40;70.10;;;;;;5073451;28;20210;-31
2023/09/01 02:48:46;;;;;;;1.45;1.00;;;19.50;85.60;;;;;;5073594;28;20079;-30
2023/09/01 02:51:13;;;;;;;1.15;1.00;;;19.60;85.20;;;;;;5072751;28;20123;-30
2023/09/01 02:53:39;;;;;;;2.67;1.15;;;18.70;84.90;;;;;;5073040;28;20053;-30
2023/09/01 02:56:06;;;;;;;2.55;1.20;;;;;;;;;;5073278;28;20128;-33
2023/09/01 02:58:34;;;;;;;1.25;0.90;;;;;;;;;;5073347;28;20152;-30
2023/09/01 03:01:07;;;;;;;1.45;1.10;;;19.90;67.50;;;;;;5073187;28;20131;-33
2023/09/01 03:03:34;;;;;;;1.52;1.00;;;19.20;72.60;;;;;;5073118;28;20117;-30
2023/09/01 03:06:04;;;;;;;1.95;1.20;;;19.10;82.00;;;;;;5053540;28;20131;-30
2023/09/01 03:08:31;;;;;;;1.58;1.00;;;;;;;;;;5065063;28;20086;-32
2023/09/01 03:10:58;;;;;;;1.35;1.00;;;18.90;74.80;;;;;;5073060;28;20127;-29
2023/09/01 03:13:25;;;;;;;1.50;1.05;;;;;;;;;;5072539;28;20165;-29
2023/09/01 03:15:54;;;;;;;1.80;1.10;;;19.30;85.50;;;;;;5072943;28;20132;-30
2023/09/01 03:18:20;;;;;;;1.73;1.10;;;19.10;85.10;;;;;;5072836;28;20131;-30
2023/09/01 03:20:47;;;;;;;1.10;1.00;;;18.90;72.80;;;;;;5064520;28;20129;-31
2023/09/01 03:23:15;;;;;;;2.03;1.10;;;19.10;85.20;;;;;;5052414;28;20601;-29
2023/09/01 03:25:42;;;;;;;1.35;1.10;;;19.20;85.10;;;;;;5052823;28;20499;-29
2023/09/01 03:28:09;;;;;;;1.20;0.93;;;;;;;;;;5052391;28;20055;-34
2023/09/01 03:30:36;;;;;;;2.40;1.13;;;18.30;84.70;;;;;;5052671;28;20131;-30
2023/09/01 03:33:06;;;;;;;1.83;1.20;;;19.30;85.50;;;;;;5052049;28;20128;-30
2023/09/01 03:35:33;;;;;;;1.70;1.10;;;;;;;;;;5057368;28;20084;-34
2023/09/01 03:38:00;;;;;;;1.38;1.10;;;20.00;85.60;;;;;;5070511;28;20139;-30
2023/09/01 03:40:28;;;;;;;1.98;1.10;;;18.40;85.20;;;;;;5072041;28;20127;-30
2023/09/01 03:42:55;;;;;;;2.05;1.17;;;20.00;85.60;;;;;;5072039;28;20124;-30
2023/09/01 03:45:22;;;;;;;1.33;1.20;;;;;;;;;;5072470;28;20127;-35
2023/09/01 03:47:48;;;;;;;2.03;1.23;;;18.70;79.50;;;;;;5072148;28;20151;-30
2023/09/01 03:50:14;;;;;;;1.60;1.20;;;19.30;72.60;;;;;;5072121;28;20132;-30
2023/09/01 03:52:41;;;;;;;1.38;0.90;;;19.10;85.50;;;;;;5071436;28;20149;-29
2023/09/01 03:55:09;;;;;;;1.35;1.25;;;;;;;;;;5072266;28;20139;-32
2023/09/01 03:57:37;;;;;;;1.40;1.10;;;18.60;84.90;;;;;;5070703;28;20406;-30
2023/09/01 04:00:09;;;;;;;1.50;1.25;;;18.80;83.00;;;;;;5071641;28;20136;-30
2023/09/01 04:02:36;;;;;;;1.45;1.15;;;;;;;;;;5072048;28;20132;-32
2023/09/01 04:05:04;;;;;;;2.10;1.10;;;19.60;85.40;;;;;;5071851;28;20576;-32
2023/09/01 04:07:31;;;;;;;1.20;1.00;;;18.50;75.60;;;;;;5071401;28;20075;-33
2023/09/01 04:09:58;;;;;;;1.10;1.00;;;18.50;85.30;;;;;;5071594;28;20131;-36
2023/09/01 04:12:25;;;;;;;1.20;1.05;;;19.60;85.40;;;;;;5071636;28;20514;-31
2023/09/01 04:14:53;;;;;;;1.00;0.90;;;19.50;85.20;;;;;;5072041;28;20131;-38
2023/09/01 04:17:20;;;;;;;1.77;1.30;;;18.40;85.10;;;;;;5072128;28;20124;-32
2023/09/01 04:19:48;;;;;;;1.15;1.00;;;;;;;;;;5071954;28;20123;-30
2023/09/01 04:22:15;;;;;;;1.33;1.10;;;;;;;;;;5071703;28;20056;-33
2023/09/01 04:24:43;;;;;;;1.98;1.23;;;18.60;84.70;;;;;;5069874;28;20558;-30
2023/09/01 04:27:09;;;;;;;1.20;1.10;;;18.60;81.20;;;;;;5071269;28;20128;-30
2023/09/01 04:29:38;;;;;;;1.70;1.20;;;18.90;84.90;;;;;;5071943;28;20136;-30
2023/09/01 04:32:06;;;;;;;1.40;1.05;;;18.70;85.60;;;;;;5071556;28;20052;-30
2023/09/01 04:34:33;;;;;;;1.80;1.10;;;19.30;86.20;;;;;;5071399;28;20580;-30
2023/09/01 04:36:59;;;;;;;1.30;1.10;;;18.50;79.80;;;;;;5071199;28;20055;-30
2023/09/01 04:39:26;;;;;;;1.52;1.25;;;18.40;85.50;;;;;;5071077;28;20128;-37
2023/09/01 04:41:53;;;;;;;1.80;1.20;;;18.80;86.00;;;;;;5051349;28;20045;-39
2023/09/01 04:44:20;;;;;;;1.42;1.00;;;;;;;;;;5051543;28;20128;-34
2023/09/01 04:46:47;;;;;;;1.48;0.95;;;19.00;85.90;;;;;;5051729;28;20128;-35
2023/09/01 04:49:15;;;;;;;1.38;1.10;;;18.80;66.70;;;;;;5051754;28;20481;-35
2023/09/01 04:51:42;;;;;;;2.67;1.20;;;;;;;;;;5054175;28;20140;-35
2023/09/01 04:54:09;;;;;;;1.50;1.10;;;19.20;86.20;;;;;;5055290;28;20502;-39
2023/09/01 04:56:36;;;;;;;2.28;1.27;;;;;;;;;;5068014;28;20106;-34
2023/09/01 04:59:03;;;;;;;2.25;1.10;;;18.80;85.80;;;;;;5064219;28;20139;-36
2023/09/01 05:01:30;;;;;;;1.33;1.10;;;19.10;73.50;;;;;;5065973;28;20140;-36
2023/09/01 05:03:57;;;;;;;3.15;1.10;;;18.50;85.40;;;;;;5065294;28;20041;-35
2023/09/01 05:06:25;;;;;;;1.77;1.30;;;18.70;85.60;;;;;;5061896;28;20578;-36
2023/09/01 05:08:51;;;;;;;1.70;1.20;;;18.60;78.80;;;;;;5066792;28;20128;-37
2023/09/01 05:11:18;;;;;;;1.65;1.23;;;;;;;;;;5064072;28;20492;-33
2023/09/01 05:13:45;;;;;;;1.27;1.10;;;17.70;70.70;;;;;;5065729;28;20099;-36
2023/09/01 05:16:13;;;;;;;2.20;1.20;;;18.80;85.60;;;;;;5064688;28;20140;-37
2023/09/01 05:18:39;;;;;;;1.20;1.00;;;18.90;86.00;;;;;;5064116;28;20383;-36
2023/09/01 05:21:06;;;;;;;1.10;1.00;;;18.90;86.10;;;;;;5063180;28;20135;-39
2023/09/01 05:23:35;;;;;;;1.25;1.10;;;18.80;71.40;;;;;;5064100;28;20582;-34
2023/09/01 05:26:02;;;;;;;1.90;1.20;;;18.90;77.20;;;;;;5063895;28;20084;-37
2023/09/01 05:28:29;;;;;;;1.58;1.40;;;;;;;;;;5066217;28;20045;-34
2023/09/01 05:30:56;;;;;;;1.48;1.17;;;19.00;86.10;;;;;;5064325;28;20128;-36
2023/09/01 05:33:23;;;;;;;2.83;1.17;;;18.80;70.60;;;;;;5065272;28;20056;-30
2023/09/01 05:35:50;;;;;;;1.60;1.17;;;;;;;;;;5063548;28;20123;-34
2023/09/01 05:38:17;;;;;;;2.05;1.20;;;18.90;85.60;;;;;;5056318;28;20132;-30
2023/09/01 05:40:45;;;;;;;1.75;1.15;;;17.80;79.40;;;;;;5056899;28;20132;-30
2023/09/01 05:43:17;;;;;;;1.20;1.10;;;18.40;77.70;;;;;;5054516;28;20127;-30
2023/09/01 05:45:44;;;;;;;2.00;1.13;;;18.80;82.00;;;;;;5054854;28;20057;-31
2023/09/01 05:48:10;;;;;;;1.38;1.20;;;18.90;85.70;;;;;;5053298;28;20132;-30
2023/09/01 05:50:37;;;;;;;1.70;1.23;;;19.80;86.30;;;;;;5055607;28;20133;-30
2023/09/01 05:53:04;;;;;;;1.42;1.27;;;17.50;73.60;;;;;;5054577;28;20131;-31
2023/09/01 05:55:31;;;;;;;1.60;1.20;;;19.10;86.30;;;;;;5054885;28;20107;-30
2023/09/01 05:57:59;;;;;;;1.13;1.00;;;18.50;85.40;;;;;;5054207;28;20124;-30
2023/09/01 06:00:26;;;;;;;1.65;1.20;;;;;;;;;;5054479;28;20135;-30
2023/09/01 06:02:53;;;;;;;1.42;1.10;;;18.10;85.40;;;;;;5053487;28;20553;-30
2023/09/01 06:05:20;;;;;;;1.85;1.10;;;;;;;;;;5054228;28;20056;-32
2023/09/01 06:07:47;;;;;;;1.15;1.05;;;18.80;85.70;;;;;;5065063;28;20127;-35
2023/09/01 06:10:15;;;;;;;1.30;1.10;;;;;;;;;;5074336;28;20080;-35
2023/09/01 06:12:41;;;;;;;1.50;1.20;;;19.30;86.40;;;;;;5073674;28;20048;-37
2023/09/01 06:15:10;;;;;;;1.23;1.10;;;18.70;66.90;;;;;;5074488;28;20131;-33
2023/09/01 06:17:37;;;;;;;1.50;1.10;;;19.20;76.90;;;;;;5074126;28;20469;-37
2023/09/01 06:20:05;;;;;;;1.27;1.00;;;;;;;;;;5074393;28;20053;-38
2023/09/01 06:22:32;;;;;;;1.13;1.00;;;18.40;85.50;;;;;;5066761;28;20418;-36
2023/09/01 06:24:59;;;;;;;1.63;1.30;;;;;;;;;;5061593;28;20128;-34
2023/09/01 06:27:25;;;;;;;1.50;1.20;;;18.90;86.20;;;;;;5062544;28;20127;-39
2023/09/01 06:29:55;;;;;;;2.22;1.20;;;18.80;86.20;;;;;;5064575;28;20130;-36
2023/09/01 06:32:23;;;;;;;1.48;1.20;;;18.50;85.70;;;;;;5063465;28;20091;-38
2023/09/01 06:34:50;;;;;;;1.60;1.20;;;18.60;86.10;;;;;;5062351;28;20049;-35
2023/09/01 06:37:17;;;;;;;2.25;1.42;;;;;;;;;;5059931;28;20565;-33
2023/09/01 06:39:44;;;;;;;1.85;1.20;;;19.00;83.70;;;;;;5062719;28;20068;-34
2023/09/01 06:42:13;;;;;;;2.28;1.35;;;19.10;83.60;;;;;;5062423;28;20045;-36
2023/09/01 06:44:41;;;;;;;2.60;1.40;;;18.40;75.30;;;;;;5062813;28;20585;-34
2023/09/01 06:47:08;;;;;;;2.53;1.65;;;;;;;;;;5061992;28;20127;-32
2023/09/01 06:49:36;;;;;;;1.90;1.30;;;19.60;86.20;;;;;;5066318;28;20076;-35
2023/09/01 06:52:03;;;;;;;1.88;1.40;;;18.50;86.00;;;;;;5073333;28;20131;-34
2023/09/01 06:54:30;;;;;;;1.95;1.27;;;;;;;;;;5066283;28;20135;-32
2023/09/01 06:56:56;;;;;;;1.70;1.40;;;19.10;84.50;;;;;;5053395;28;20482;-33
2023/09/01 06:59:23;;;;;;;2.30;1.40;;;;;;;;;;5053130;28;20057;-36
2023/09/01 07:01:50;;;;;;;2.25;1.20;;;17.80;85.20;;;;;;5053528;28;20147;-35
2023/09/01 07:04:17;;;;;;;1.80;1.30;;;18.40;85.50;;;;;;5053090;28;20128;-36
2023/09/01 07:06:45;;;;;;;1.92;1.38;;;18.90;67.00;;;;;;5053087;28;20454;-32
2023/09/01 07:09:12;;;;;;;2.13;1.40;;;;;;;;;;5070640;28;20136;-37
2023/09/01 07:11:39;;;;;;;1.60;1.30;;;19.40;86.20;;;;;;5054352;28;20136;-34
2023/09/01 07:14:06;;;;;;;2.90;1.40;;;;;;;;;;5051439;28;20152;-35
2023/09/01 07:16:32;;;;;;;4.15;1.63;;;18.40;80.90;;;;;;5052421;28;20128;-33
2023/09/01 07:18:59;;;;;;;2.67;1.40;;;19.30;85.50;;;;;;5052927;28;20143;-35
2023/09/01 07:21:26;;;;;;;3.15;1.48;;;18.40;84.60;;;;;;5065807;28;20411;-37
2023/09/01 07:23:54;;;;;;;1.65;1.17;;;19.80;74.00;;;;;;5072495;28;20136;-35
2023/09/01 07:26:20;;;;;;;2.45;1.40;;;19.80;71.90;;;;;;5066771;28;20123;-33
2023/09/01 07:28:47;;;;;;;3.53;1.30;;;19.80;84.80;;;;;;5052695;28;20132;-35
2023/09/01 07:31:14;;;;;;;2.78;1.42;;;19.80;84.50;;;;;;5052868;28;20124;-35
2023/09/01 07:33:42;;;;;;;1.35;1.00;;;;;;;;;;5052257;28;20127;-35
2023/09/01 07:36:09;;;;;;;2.38;1.27;;;19.30;65.50;;;;;;5054783;28;20049;-34
2023/09/01 07:38:36;;;;;;;1.75;1.10;;;19.20;82.70;;;;;;5072558;28;20132;-36
2023/09/01 07:41:04;;;;;;;1.42;1.10;;;20.50;83.20;;;;;;5072080;28;20581;-37
2023/09/01 07:43:30;;;;;;;1.25;1.00;;;21.00;67.30;;;;;;5059964;28;20048;-34
2023/09/01 07:45:57;;;;;;;2.50;1.10;;;20.70;76.80;;;;;;5066863;28;20493;-36
2023/09/01 07:48:24;;;;;;;2.13;1.27;;;20.90;83.50;;;;;;5070452;28;20464;-35
2023/09/01 07:50:51;;;;;;;1.17;1.08;;;;;;;;;;5052267;28;20425;-33
2023/09/01 07:53:18;;;;;;;2.42;1.05;;;20.70;83.20;;;;;;5051782;28;20127;-38
2023/09/01 07:55:45;;;;;;;1.45;1.00;;;20.00;82.50;;;;;;5052258;28;20132;-35
2023/09/01 07:58:13;;;;;;;1.77;1.20;;;21.00;68.90;;;;;;5060906;28;20410;-35
2023/09/01 08:00:40;;;;;;;2.15;1.20;;;21.10;67.50;;;;;;5064632;28;20127;-34
2023/09/01 08:03:10;;;;;;;1.50;1.00;;;21.10;72.40;;;;;;5057636;28;20425;-38
2023/09/01 08:05:37;;;;;;;1.33;0.90;;;21.10;82.80;;;;;;5067563;28;20056;-38
2023/09/01 08:08:04;;;;;;;1.48;1.00;;;;;;;;;;5071948;28;20136;-34
2023/09/01 08:10:31;;;;;;;1.35;1.05;;;21.10;82.30;;;;;;5072163;28;20049;-36
2023/09/01 08:12:58;;;;;;;1.52;1.10;;;;;;;;;;5072156;28;20474;-33
2023/09/01 08:15:26;;;;;;;2.78;0.93;;;21.30;64.60;;;;;;5071638;28;20119;-38
2023/09/01 08:17:54;;;;;;;1.73;1.00;;;20.70;81.80;;;;;;5071254;28;20127;-34
2023/09/01 08:20:22;;;;;;;1.48;1.02;;;21.80;82.80;;;;;;5072289;28;20106;-38
2023/09/01 08:22:48;;;;;;;0.95;0.82;;;21.30;76.60;;;;;;5062208;28;20110;-33
2023/09/01 08:25:15;;;;;;;1.00;0.90;;;20.80;82.10;;;;;;5052128;28;20095;-37
2023/09/01 08:27:42;;;;;;;1.15;0.90;;;21.50;82.00;;;;;;5050455;28;20124;-39
2023/09/01 08:30:10;;;;;;;3.22;1.15;;;21.50;64.40;;;;;;5051870;28;20055;-33
2023/09/01 08:32:40;;;;;;;3.08;1.30;;;21.10;68.90;;;;;;5051094;28;20479;-35
2023/09/01 08:35:07;;;;;;;2.13;1.10;;;21.40;81.70;;;;;;5051381;28;20533;-34
2023/09/01 08:37:34;;;;;;;2.92;1.45;;;21.80;81.90;;;;;;5065894;28;20153;-39
2023/09/01 08:40:01;;;;;;;4.28;1.42;;;22.10;70.30;;;;;;5071825;28;20127;-35
2023/09/01 08:42:28;;;;;;;1.77;1.02;;;21.50;82.20;;;;;;5071740;28;20131;-36
2023/09/01 08:44:54;;;;;;;2.63;1.25;;;21.30;81.50;;;;;;5071780;28;20049;-38
2023/09/01 08:47:21;;;;;;;1.98;1.30;;;21.90;69.80;;;;;;5071811;28;20123;-35
2023/09/01 08:49:50;;;;;;;2.13;1.20;;;21.30;81.10;;;;;;5057237;28;20429;-38
2023/09/01 08:52:17;;;;;;;2.05;1.35;;;;;;;;;;5051608;28;20103;-35
2023/09/01 08:54:44;;;;;;;2.03;1.17;;;21.90;81.60;;;;;;5051381;28;20076;-35
2023/09/01 08:57:11;;;;;;;5.68;1.38;;;;;;;;;;5051722;28;20561;-37
2023/09/01 08:59:38;;;;;;;3.63;1.48;;;20.50;71.90;;;;;;5062410;28;20470;-35
2023/09/01 09:02:05;;;;;;;5.65;1.40;;;22.10;81.10;;;;;;5061434;28;20056;-35
2023/09/01 09:04:32;;;;;;;2.30;1.20;;;21.80;80.90;;;;;;5059625;28;20056;-36
2023/09/01 09:07:14;;;;;;;3.45;1.33;;;21.80;63.60;;;;;;5051914;28;20148;-36
2023/09/01 09:09:50;;;;;;;1.77;1.13;;;22.20;81.30;;;;;;5051569;28;20045;-38
2023/09/01 09:12:18;;;;;;;2.75;1.23;;;21.40;80.70;;;;;;5050326;28;20140;-37
2023/09/01 09:14:49;;;;;;;3.30;1.20;;;21.80;81.30;;;;;;5055492;28;20049;-34
2023/09/01 09:17:16;;;;;;;2.95;1.13;;;21.50;66.80;;;;;;5060140;28;20098;-35
2023/09/01 09:19:51;;;;;;;2.45;1.33;;;22.30;81.10;;;;;;5060041;28;20116;-36
2023/09/01 09:22:19;;;;;;;3.85;1.17;;;22.30;64.30;;;;;;5059947;28;20401;-36
2023/09/01 09:24:46;;;;;;;3.25;1.33;;;21.50;64.40;;;;;;5064191;28;20140;-36
2023/09/01 09:27:16;;;;;;;2.53;1.23;;;22.40;82.20;;;;;;5070294;28;20129;-36
2023/09/01 09:29:44;;;;;;;2.25;1.20;;;21.70;81.20;;;;;;5071504;28;20128;-38
2023/09/01 09:32:20;;;;;;;2.70;1.20;;;21.80;63.50;;;;;;5059266;28;20083;-33
2023/09/01 09:35:09;;;;;;;3.22;1.40;;;21.50;76.80;;;;;;5051350;28;20537;-35
2023/09/01 09:37:37;;;;;;;2.67;1.10;;;21.70;81.30;;;;;;5067519;28;20055;-37
2023/09/01 09:40:12;;;;;;;2.80;1.27;;;21.90;63.60;;;;;;5068598;28;20131;-34
2023/09/01 09:42:39;;;;;;;2.33;1.10;;;;;;;;;;5074656;28;20139;-32
2023/09/01 09:45:07;;;;;;;2.67;1.10;;;22.10;81.50;;;;;;5074950;28;20080;-29
2023/09/01 09:47:34;;;;;;;2.17;1.08;;;22.40;81.20;;;;;;5071743;28;20051;-31
2023/09/01 09:50:01;;;;;;;3.30;1.23;;;;;;;;;;5064457;28;20072;-35
2023/09/01 09:52:28;;;;;;;2.45;1.30;;;21.90;81.10;;;;;;5074191;28;20493;-32
2023/09/01 09:54:59;;;;;;;1.67;0.95;;;22.10;81.90;;;;;;5074544;28;20585;-31
2023/09/01 09:57:26;;;;;;;2.45;1.10;;;23.10;81.70;;;;;;5074785;28;20094;-31
2023/09/01 09:59:56;;;;;;;1.48;1.00;;;21.90;63.50;;;;;;5062540;28;20137;-35
2023/09/01 10:02:24;;;;;;;1.85;1.10;;;21.90;63.50;;;;;;5054519;28;20462;-35
2023/09/01 10:04:51;;;;;;;2.50;1.10;;;;;;;;;;5053531;28;20057;-37
2023/09/01 10:07:18;;;;;;;1.98;1.20;;;21.40;80.60;;;;;;5056158;28;20136;-39
2023/09/01 10:09:45;;;;;;;1.92;1.13;;;21.80;81.70;;;;;;5067109;28;20578;-38
2023/09/01 10:12:13;;;;;;;1.90;1.10;;;20.80;63.50;;;;;;5053498;28;20410;-34
2023/09/01 10:14:40;;;;;;;3.67;1.25;;;22.10;78.70;;;;;;5052957;28;20131;-35
2023/09/01 10:17:08;;;;;;;1.83;1.08;;;;;;;;;;5055809;28;20041;-38
2023/09/01 10:19:34;;;;;;;1.50;1.10;;;21.80;81.20;;;;;;5072740;28;20128;-35
2023/09/01 10:22:02;;;;;;;1.20;1.00;;;;;;;;;;5064290;28;20120;-31
2023/09/01 10:24:28;;;;;;;1.98;0.98;;;21.70;71.60;;;;;;5062289;28;20125;-37
2023/09/01 10:27:15;;;;;;;2.35;1.20;;;21.00;81.10;;;;;;5067734;28;20127;-36
2023/09/01 10:29:42;;;;;;;1.85;1.05;;;;;;;;;;5053146;28;20041;-35
2023/09/01 10:32:16;;;;;;;2.60;1.00;;;21.50;80.90;;;;;;5053560;28;20133;-35
2023/09/01 10:34:49;;;;;;;1.33;1.00;;;21.30;70.50;;;;;;5053306;28;20045;-33
2023/09/01 10:37:27;;;;;;;1.90;1.00;;;21.70;81.50;;;;;;5056590;28;20124;-36
2023/09/01 10:39:53;;;;;;;2.13;1.38;;;21.70;81.20;;;;;;5062244;28;20045;-35
2023/09/01 10:42:38;;;;;;;1.67;1.10;;;21.70;63.80;;;;;;5063525;28;20481;-33
2023/09/01 10:45:09;;;;;;;2.92;1.20;;;21.70;81.10;;;;;;5060971;28;20123;-37
2023/09/01 10:47:42;;;;;;;2.10;1.30;;;21.90;81.90;;;;;;5061547;28;20140;-38
2023/09/01 10:50:12;;;;;;;2.55;1.23;;;;;;;;;;5067118;28;20486;-36
2023/09/01 10:52:39;;;;;;;1.73;1.10;;;;;;;;;;5073039;28;20059;-37
2023/09/01 10:55:06;;;;;;;1.92;1.10;;;21.40;81.20;;;;;;5071728;28;20051;-32
2023/09/01 10:57:42;;;;;;;1.88;1.10;;;21.10;68.70;;;;;;5054720;28;20456;-35
2023/09/01 11:00:28;;;;;;;3.45;1.27;;;21.20;81.20;;;;;;5053578;28;20048;-30
2023/09/01 11:02:54;;;;;;;2.13;1.08;;;21.00;81.60;;;;;;5052919;28;20048;-31
2023/09/01 11:05:37;;;;;;;2.17;1.23;;;21.70;64.20;;;;;;5056639;28;20131;-33
2023/09/01 11:08:12;;;;;;;1.10;1.00;;;21.50;79.00;;;;;;5072924;28;20071;-32
2023/09/01 11:10:39;;;;;;;2.30;0.95;;;21.10;81.90;;;;;;5072554;28;20048;-31
2023/09/01 11:13:15;;;;;;;2.33;1.10;;;20.50;80.90;;;;;;5072538;28;20127;-31
2023/09/01 11:15:45;;;;;;;2.30;1.10;;;22.60;75.60;;;;;;5073002;28;20151;-36
2023/09/01 11:18:19;;;;;;;2.40;1.20;;;21.30;81.70;;;;;;5073286;28;20474;-35
2023/09/01 11:20:46;;;;;;;2.90;1.10;;;21.50;66.70;;;;;;5072799;28;20051;-35
2023/09/01 11:23:13;;;;;;;3.50;1.33;;;20.10;81.20;;;;;;5072726;28;20138;-39
2023/09/01 11:25:40;;;;;;;2.72;1.10;;;;;;;;;;5065219;28;20137;-38
2023/09/01 11:28:06;;;;;;;2.47;1.15;;;20.20;81.10;;;;;;5057156;28;20124;-37
2023/09/01 11:30:34;;;;;;;2.25;1.13;;;21.20;82.20;;;;;;5068488;28;20045;-38
2023/09/01 11:33:11;;;;;;;3.00;1.10;;;21.10;73.20;;;;;;5072602;28;20076;-37
2023/09/01 11:35:38;;;;;;;2.13;1.10;;;;;;;;;;5072534;28;20123;-38
2023/09/01 11:38:05;;;;;;;1.98;1.27;;;;;;;;;;5072127;28;20127;-36
2023/09/01 11:40:32;;;;;;;5.20;1.20;;;21.30;64.50;;;;;;5072336;28;20127;-34
2023/09/01 11:42:59;;;;;;;3.60;1.30;;;20.90;71.60;;;;;;5058596;28;20124;-32
2023/09/01 11:45:25;;;;;;;4.75;1.27;;;21.40;82.30;;;;;;5059679;28;20179;-36
2023/09/01 11:47:54;;;;;;;2.75;1.10;;;21.20;81.70;;;;;;5067899;28;20128;-37
2023/09/01 11:50:21;;;;;;;1.20;1.00;;;;;;;;;;5064200;28;20504;-36
2023/09/01 11:52:54;;;;;;;1.63;1.10;;;21.10;81.70;;;;;;5055301;28;20145;-36
2023/09/01 11:55:34;;;;;;;2.38;1.10;;;23.30;65.60;;;;;;5070089;28;20128;-36
2023/09/01 11:58:02;;;;;;;2.15;1.10;;;;;;;;;;5060482;28;20041;-39
2023/09/01 12:00:34;;;;;;;2.00;1.00;;;21.30;72.00;;;;;;5064563;28;20054;-33
2023/09/01 12:03:03;;;;;;;2.97;1.13;;;21.40;82.30;;;;;;5059571;28;20474;-31
2023/09/01 12:05:33;;;;;;;2.05;1.15;;;21.00;66.20;;;;;;5067511;28;20527;-30
2023/09/01 12:08:01;;;;;;;1.92;1.10;;;21.20;82.20;;;;;;5061261;28;20072;-31
2023/09/01 12:10:28;;;;;;;3.97;1.25;;;;;;;;;;5071678;28;20051;-32
2023/09/01 12:13:03;;;;;;;4.30;1.27;;;21.30;64.30;;;;;;5061010;28;20081;-35
2023/09/01 12:15:30;;;;;;;2.63;1.10;;;;;;;;;;5061575;28;20060;-33
2023/09/01 12:17:56;;;;;;;4.40;1.30;;;21.10;75.70;;;;;;5068572;28;20127;-32
2023/09/01 12:20:24;;;;;;;4.07;1.38;;;21.50;81.90;;;;;;5069869;28;20726;-32
2023/09/01 12:22:51;;;;;;;4.45;1.45;;;20.60;81.30;;;;;;5070181;28;20135;-36
2023/09/01 12:25:18;;;;;;;6.30;1.40;;;21.10;69.10;;;;;;5067796;28;20465;-37
2023/09/01 12:27:45;;;;;;;2.00;1.40;;;20.70;71.20;;;;;;5071884;28;20072;-36
2023/09/01 12:30:12;;;;;;;3.03;1.38;;;21.30;64.40;;;;;;5065822;28;20127;-33
2023/09/01 12:32:39;;;;;;;3.03;1.20;;;21.10;82.00;;;;;;5067017;28;20135;-37
2023/09/01 12:35:07;;;;;;;3.10;1.30;;;21.30;64.40;;;;;;5062487;28;20045;-36
2023/09/01 12:37:35;;;;;;;1.90;1.10;;;21.30;64.40;;;;;;5062903;28;20128;-34
2023/09/01 12:40:03;;;;;;;4.13;1.50;;;;;;;;;;5071838;28;20131;-34
2023/09/01 12:42:30;;;;;;;1.55;1.20;;;;;;;;;;5065918;28;20132;-37
2023/09/01 12:44:57;;;;;;;3.22;1.20;;;20.90;77.00;;;;;;5061310;28;20128;-36
2023/09/01 12:47:24;;;;;;;2.60;1.30;;;;;;;;;;5066518;28;20140;-35
2023/09/01 12:49:51;;;;;;;3.03;1.30;;;;;;;;;;5060222;28;20127;-37
2023/09/01 12:52:18;;;;;;;2.92;1.33;;;;;;;;;;5066171;28;20127;-36
2023/09/01 12:54:46;;;;;;;3.00;1.50;;;20.40;80.20;;;;;;5069307;28;20135;-36
2023/09/01 12:57:13;;;;;;;2.13;1.23;;;20.10;81.30;;;;;;5071450;28;20087;-39
2023/09/01 12:59:40;;;;;;;2.80;1.35;;;20.90;82.70;;;;;;5071575;28;20136;-38
2023/09/01 13:02:07;;;;;;;3.38;1.40;;;;;;;;;;5066900;28;20131;-32
2023/09/01 13:04:34;;;;;;;5.80;1.60;;;21.30;82.90;;;;;;5070912;28;20083;-31
2023/09/01 13:07:01;;;;;;;2.38;1.40;;;22.60;65.50;;;;;;5071662;28;20080;-31
2023/09/01 13:09:28;;;;;;;2.85;1.25;;;;;;;;;;5057345;28;20414;-30
2023/09/01 13:11:56;;;;;;;2.88;1.20;;;21.80;73.10;;;;;;5069033;28;20127;-31
2023/09/01 13:14:23;;;;;;;5.32;1.30;;;21.30;70.80;;;;;;5071383;28;20132;-31